createdAt,value
2023-01-13T00:01:23.629Z,1003.0207937811053
2023-01-13T00:07:51.845Z,1002.867049996834
2023-01-13T00:19:01.933Z,1002.6696280124788
2023-01-13T00:25:26.479Z,1002.7203004224004
2023-01-13T00:31:53.108Z,1002.7099260980702
2023-01-13T00:38:18.299Z,1002.765719808393
2023-01-13T00:44:44.672Z,1002.7540332598528
2023-01-13T00:51:11.403Z,1002.7998527409735
2023-01-13T00:58:54.741Z,1002.8261622499175
2023-01-13T01:11:20.785Z,1002.9481411310122
2023-01-13T01:18:22.726Z,1003.0731181038104
2023-01-13T01:24:49.373Z,1003.0651982916189
2023-01-13T01:31:16.408Z,1003.1771179287773
2023-01-13T01:37:40.833Z,1003.2387780110458
2023-01-13T01:47:52.890Z,1003.1787607794496
2023-01-13T01:54:22.854Z,1003.0988672268757
2023-01-13T02:00:47.605Z,1003.0450715379872
2023-01-13T02:07:11.945Z,1003.0735478680598
2023-01-13T02:13:37.185Z,1003.0890852255676
2023-01-13T02:20:07.036Z,1003.1481310112742
2023-01-13T02:26:32.792Z,1003.2542176886446
2023-01-13T02:37:43.747Z,1003.3398346768959
2023-01-13T02:46:33.887Z,1003.3817321651663
2023-01-13T02:56:11.369Z,1003.4531204021536
2023-01-13T03:06:27.496Z,1003.4497744116417
2023-01-13T03:12:55.821Z,1003.2407569338559
2023-01-13T03:19:18.789Z,1003.2567924145859
2023-01-13T03:25:43.173Z,1003.4284020393583
2023-01-13T03:32:08.435Z,1003.3423806740511
2023-01-13T03:39:25.159Z,1003.2022764534458
2023-01-13T03:45:53.703Z,1003.1078291819604
2023-01-13T03:52:18.033Z,1003.0677851195633
2023-01-13T03:58:45.019Z,1003.1444560588235
2023-01-13T04:05:15.867Z,1003.1800446924824
2023-01-13T04:11:47.108Z,1003.2101992725711
2023-01-13T04:19:20.529Z,1003.2964783018879
2023-01-13T04:32:09.107Z,1003.2561800848245
2023-01-13T04:38:34.760Z,1003.1149472185064
2023-01-13T04:51:09.270Z,1002.9578764161637
2023-01-13T04:57:35.061Z,1002.9251656255656
2023-01-13T05:04:00.973Z,1002.7745304091987
2023-01-13T05:10:24.711Z,1002.7595307646476
2023-01-13T05:19:27.971Z,1002.7658665342772
2023-01-13T05:25:52.917Z,1002.6798428090138
2023-01-13T05:32:20.942Z,1002.7084832916433
2023-01-13T05:38:47.756Z,1002.7299092275584
2023-01-13T05:45:15.745Z,1002.7433241324378
2023-01-13T06:01:59.168Z,1002.651287701074
2023-01-13T06:08:28.183Z,1002.610139712033
2023-01-13T06:14:56.129Z,1002.5767312217204
2023-01-13T06:21:48.645Z,1002.6295022906437
2023-01-13T06:28:15.176Z,1002.6417365372333
2023-01-13T06:34:44.494Z,1002.5944960956203
2023-01-13T06:44:27.290Z,1002.5855581156044
2023-01-13T06:56:33.312Z,1002.6692820022669
2023-01-13T07:03:00.667Z,1002.7001257950878
2023-01-13T07:09:27.315Z,1002.7608614138543
2023-01-13T07:20:53.224Z,1002.7748287277129
2023-01-13T07:27:20.867Z,1002.7960245332616
2023-01-13T07:36:53.081Z,1002.7110947952892
2023-01-13T07:43:20.725Z,1002.7295014055532
2023-01-13T07:49:50.387Z,1002.7938685444587
2023-01-13T07:56:25.573Z,1002.7911535468124
2023-01-13T08:02:51.414Z,1002.8248848392728
2023-01-13T08:09:16.803Z,1002.8480037641865
2023-01-13T08:15:42.948Z,1002.9089752541141
2023-01-13T08:33:12.128Z,1002.9118304888334
2023-01-13T08:39:36.881Z,1002.9758983180634
2023-01-13T08:46:02.176Z,1002.9897804200302
2023-01-13T08:52:26.646Z,1003.0025507537074
2023-01-13T08:58:51.762Z,1002.9572389571473
2023-01-13T09:05:17.828Z,1003.0117783733596
2023-01-13T09:11:42.877Z,1003.0033596624528
2023-01-13T09:18:09.306Z,1002.9988920465678
2023-01-13T09:24:33.751Z,1003.0282677037075
2023-01-13T09:31:00.022Z,1002.9731680385556
2023-01-13T09:37:24.180Z,1002.9548504380649
2023-01-13T09:43:48.992Z,1002.9777590215505
2023-01-13T09:50:13.761Z,1003.01957613997
2023-01-13T09:56:38.577Z,1003.0546575595722
2023-01-13T10:03:04.720Z,1003.0077766288474
2023-01-13T10:12:16.608Z,1003.0114069919358
2023-01-13T10:18:42.196Z,1002.9811499344974
2023-01-13T10:25:10.397Z,1003.0217177768568
2023-01-13T10:31:35.341Z,1003.2266649644575
2023-01-13T10:38:00.554Z,1003.5114461118205
2023-01-13T10:44:25.021Z,1003.7139763460364
2023-01-13T10:50:50.464Z,1003.6746626679227
2023-01-13T10:57:14.765Z,1003.5752115816323
2023-01-13T11:03:39.128Z,1003.5055198835878
2023-01-13T11:10:04.052Z,1003.4746149087025
2023-01-13T11:17:56.683Z,1003.4289893167811
2023-01-13T11:25:34.555Z,1003.4032491389572
2023-01-13T11:38:43.173Z,1003.380078913826
2023-01-13T11:49:42.121Z,1003.3847830380075
2023-01-13T11:56:06.706Z,1003.4064241445598
2023-01-13T12:02:31.026Z,1003.4416845824917
2023-01-13T12:08:56.026Z,1003.5069280211677
2023-01-13T12:18:02.249Z,1003.6084638781161
2023-01-13T12:30:27.721Z,1003.6862966179347
2023-01-13T12:41:41.982Z,1003.6631811011616
2023-01-13T12:48:07.488Z,1003.6687111343924
2023-01-13T12:54:32.541Z,1003.7171744404737
2023-01-13T13:00:58.945Z,1003.7437108900273
2023-01-13T13:07:23.590Z,1003.7818907468193
2023-01-13T13:13:48.958Z,1003.7875228953917
2023-01-13T13:20:13.811Z,1003.8567302531328
2023-01-13T13:26:38.497Z,1003.8955272815508
2023-01-13T13:34:11.306Z,1003.924175335466
2023-01-13T13:40:36.101Z,1003.9859502469632
2023-01-13T13:47:01.292Z,1004.0757039132828
2023-01-13T13:53:26.696Z,1004.2024337673594
2023-01-13T13:59:51.734Z,1004.2899984372573
2023-01-13T14:11:20.736Z,1004.3422096612553
2023-01-13T14:17:46.415Z,1004.4073553877197
2023-01-13T14:28:34.560Z,1004.5720002519605
2023-01-13T14:34:59.560Z,1004.6233317243455
2023-01-13T14:44:58.554Z,1004.776744624511
2023-01-13T14:51:23.206Z,1004.9142030850545
2023-01-13T14:57:49.606Z,1004.9418330510096
2023-01-13T15:04:16.105Z,1004.985469257503
2023-01-13T15:10:50.692Z,1005.2345777082428
2023-01-13T15:17:14.759Z,1005.3312029277241
2023-01-13T15:23:40.545Z,1005.36176637354
2023-01-13T15:30:05.835Z,1005.3282015830221
2023-01-13T15:36:27.787Z,1005.3936915466644
2023-01-13T15:46:42.852Z,1005.4975187541426
2023-01-13T15:53:04.619Z,1005.588230422522
2023-01-13T15:59:26.154Z,1005.6351937329716
2023-01-13T16:05:48.141Z,1005.7420777429822
2023-01-13T16:12:10.355Z,1005.819670430747
2023-01-13T16:18:32.250Z,1005.9131876866537
2023-01-13T16:24:54.242Z,1006.0172638874135
2023-01-13T16:36:09.701Z,1006.1605260836391
2023-01-13T16:42:34.003Z,1006.2747705264461
2023-01-13T16:48:56.249Z,1006.3597704357305
2023-01-13T17:00:24.663Z,1006.8291872297465
2023-01-13T17:06:46.086Z,1006.9476538543483
2023-01-13T17:14:57.114Z,1007.0489027250865
2023-01-13T17:24:53.356Z,1007.2713507266135
2023-01-13T17:34:00.822Z,1007.3826095389526
2023-01-13T17:40:49.512Z,1007.6534446357017
2023-01-13T17:47:10.450Z,1007.6498346426115
2023-01-13T17:54:23.847Z,1007.6043279154396
2023-01-13T18:00:45.759Z,1007.927593271097
2023-01-13T18:07:07.263Z,1008.2201011246168
2023-01-13T18:13:29.100Z,1008.2470523905218
2023-01-13T18:19:52.178Z,1008.2557153272381
2023-01-13T18:26:13.521Z,1008.2150138942875
2023-01-13T18:34:46.333Z,1008.2752803021409
2023-01-13T18:41:08.725Z,1008.3981683781199
2023-01-13T18:47:30.608Z,1008.4980175472247
2023-01-13T18:55:52.186Z,1008.4992143220493
2023-01-13T19:04:06.648Z,1008.7006508748032
2023-01-13T19:10:28.800Z,1008.8236153837131
2023-01-13T19:16:51.775Z,1008.9305869129064
2023-01-13T19:23:14.366Z,1009.0296354252926
2023-01-13T19:29:36.025Z,1009.1288792725647
2023-01-13T19:35:58.552Z,1009.3154041614116
2023-01-13T19:42:21.182Z,1009.4362588224436
2023-01-13T19:48:54.491Z,1009.5682052114436
2023-01-13T19:58:22.632Z,1009.7014853485754
2023-01-13T20:04:44.578Z,1009.8375747978462
2023-01-13T20:15:16.861Z,1009.7830170182702
2023-01-13T20:21:54.200Z,1009.994416054323
2023-01-13T20:28:20.042Z,1010.1737934396418
2023-01-13T20:34:45.364Z,1010.3718740732716
2023-01-13T20:41:11.395Z,1010.4164406573373
2023-01-13T20:47:35.421Z,1010.6331305585137
2023-01-13T20:54:01.680Z,1010.7728062129027
2023-01-13T21:00:25.883Z,1010.5364431546932
2023-01-13T21:06:48.449Z,1010.9914967284899
2023-01-13T21:13:10.543Z,1011.2398370435055
2023-01-13T21:19:33.135Z,1011.1715756119524
2023-01-13T21:25:56.300Z,1011.1530400049066
2023-01-13T21:32:18.726Z,1011.1834915193009
2023-01-13T21:38:43.751Z,1011.2886901424865
2023-01-13T21:45:06.983Z,1011.4120113962746
2023-01-13T21:51:30.315Z,1011.5555523179486
2023-01-13T21:57:53.587Z,1011.6647508392663
2023-01-13T22:04:16.632Z,1011.7029355153793
2023-01-13T22:10:45.848Z,1011.7063112922938
2023-01-13T22:17:09.898Z,1011.8216452007674
2023-01-13T22:23:32.337Z,1011.9318766264377
2023-01-13T22:29:57.551Z,1011.992480398499
2023-01-13T22:36:21.287Z,1012.0285069216031
2023-01-13T22:44:57.547Z,1012.1940730883078
2023-01-13T22:51:23.167Z,1012.3470611464395
2023-01-13T22:57:48.850Z,1012.4026940894472
2023-01-13T23:05:18.500Z,1012.4557712243369
2023-01-13T23:11:47.957Z,1012.5512004660502
2023-01-13T23:18:24.129Z,1012.6715714290348
2023-01-13T23:25:44.946Z,1012.7311783218912
2023-01-13T23:32:09.122Z,1012.7719698825027
2023-01-13T23:38:35.876Z,1012.7692253552117
2023-01-13T23:45:02.996Z,1012.7706470570422
2023-01-13T23:51:30.044Z,1012.821259368619
